sensor_id;sensor_type;location;lat;lon;timestamp;pressure;altitude;pressure_sealevel;temperature
73937;BMP180;59249;59.736;30.568;2023-01-19T00:01:15;99233.00;;;2.40
73937;BMP180;59249;59.736;30.568;2023-01-19T00:03:44;99225.00;;;2.40
73937;BMP180;59249;59.736;30.568;2023-01-19T00:06:13;99214.00;;;2.30
73937;BMP180;59249;59.736;30.568;2023-01-19T00:08:42;99211.00;;;2.30
73937;BMP180;59249;59.736;30.568;2023-01-19T00:11:14;99213.00;;;2.30
73937;BMP180;59249;59.736;30.568;2023-01-19T00:13:44;99212.00;;;2.30
73937;BMP180;59249;59.736;30.568;2023-01-19T00:16:17;99201.00;;;2.20
73937;BMP180;59249;59.736;30.568;2023-01-19T00:18:49;99202.00;;;2.30
73937;BMP180;59249;59.736;30.568;2023-01-19T00:21:19;99194.00;;;2.30
73937;BMP180;59249;59.736;30.568;2023-01-19T00:23:48;99185.00;;;2.30
73937;BMP180;59249;59.736;30.568;2023-01-19T00:26:19;99179.00;;;2.20
73937;BMP180;59249;59.736;30.568;2023-01-19T00:28:50;99178.00;;;2.10
73937;BMP180;59249;59.736;30.568;2023-01-19T00:37:06;99156.00;;;2.00
73937;BMP180;59249;59.736;30.568;2023-01-19T00:39:35;99146.00;;;2.00
73937;BMP180;59249;59.736;30.568;2023-01-19T00:42:03;99142.00;;;1.90
73937;BMP180;59249;59.736;30.568;2023-01-19T00:44:51;99133.00;;;1.90
73937;BMP180;59249;59.736;30.568;2023-01-19T00:47:20;99129.00;;;1.90
73937;BMP180;59249;59.736;30.568;2023-01-19T00:49:48;99122.00;;;1.90
73937;BMP180;59249;59.736;30.568;2023-01-19T00:52:17;99116.00;;;2.00
73937;BMP180;59249;59.736;30.568;2023-01-19T00:54:46;99118.00;;;1.90
73937;BMP180;59249;59.736;30.568;2023-01-19T00:57:15;99101.00;;;2.00
73937;BMP180;59249;59.736;30.568;2023-01-19T00:59:45;99107.00;;;2.00
73937;BMP180;59249;59.736;30.568;2023-01-19T01:02:15;99091.00;;;1.90
73937;BMP180;59249;59.736;30.568;2023-01-19T01:04:44;99091.00;;;2.00
73937;BMP180;59249;59.736;30.568;2023-01-19T01:07:12;99087.00;;;2.00
73937;BMP180;59249;59.736;30.568;2023-01-19T01:09:41;99073.00;;;2.00
73937;BMP180;59249;59.736;30.568;2023-01-19T01:12:10;99075.00;;;2.00
73937;BMP180;59249;59.736;30.568;2023-01-19T01:14:38;99069.00;;;2.00
73937;BMP180;59249;59.736;30.568;2023-01-19T01:17:07;99063.00;;;2.00
73937;BMP180;59249;59.736;30.568;2023-01-19T01:19:38;99054.00;;;2.00
73937;BMP180;59249;59.736;30.568;2023-01-19T01:22:08;99047.00;;;2.00
73937;BMP180;59249;59.736;30.568;2023-01-19T01:24:37;99039.00;;;2.10
73937;BMP180;59249;59.736;30.568;2023-01-19T01:27:06;99035.00;;;2.00
73937;BMP180;59249;59.736;30.568;2023-01-19T01:29:34;99019.00;;;2.10
73937;BMP180;59249;59.736;30.568;2023-01-19T01:32:03;99019.00;;;2.10
73937;BMP180;59249;59.736;30.568;2023-01-19T01:34:32;99006.00;;;2.10
73937;BMP180;59249;59.736;30.568;2023-01-19T01:37:03;98999.00;;;2.20
73937;BMP180;59249;59.736;30.568;2023-01-19T01:39:34;99000.00;;;2.20
73937;BMP180;59249;59.736;30.568;2023-01-19T01:42:13;98983.00;;;2.20
73937;BMP180;59249;59.736;30.568;2023-01-19T01:44:47;98984.00;;;2.20
73937;BMP180;59249;59.736;30.568;2023-01-19T01:47:22;98984.00;;;2.30
73937;BMP180;59249;59.736;30.568;2023-01-19T01:50:00;98980.00;;;2.30
73937;BMP180;59249;59.736;30.568;2023-01-19T01:52:41;98975.00;;;2.30
73937;BMP180;59249;59.736;30.568;2023-01-19T01:55:36;98971.00;;;2.30
73937;BMP180;59249;59.736;30.568;2023-01-19T01:58:09;98960.00;;;2.30
73937;BMP180;59249;59.736;30.568;2023-01-19T02:00:39;98961.00;;;2.30
73937;BMP180;59249;59.736;30.568;2023-01-19T02:03:26;98952.00;;;2.30
73937;BMP180;59249;59.736;30.568;2023-01-19T02:05:59;98949.00;;;2.30
73937;BMP180;59249;59.736;30.568;2023-01-19T02:08:38;98930.00;;;2.40
73937;BMP180;59249;59.736;30.568;2023-01-19T02:11:29;98936.00;;;2.40
73937;BMP180;59249;59.736;30.568;2023-01-19T02:14:16;98917.00;;;2.40
73937;BMP180;59249;59.736;30.568;2023-01-19T02:16:46;98911.00;;;2.40
73937;BMP180;59249;59.736;30.568;2023-01-19T02:19:18;98904.00;;;2.40
73937;BMP180;59249;59.736;30.568;2023-01-19T02:21:54;98910.00;;;2.40
73937;BMP180;59249;59.736;30.568;2023-01-19T02:24:40;98903.00;;;2.50
73937;BMP180;59249;59.736;30.568;2023-01-19T02:27:10;98891.00;;;2.40
73937;BMP180;59249;59.736;30.568;2023-01-19T02:29:41;98894.00;;;2.50
73937;BMP180;59249;59.736;30.568;2023-01-19T02:32:10;98883.00;;;2.50
73937;BMP180;59249;59.736;30.568;2023-01-19T02:34:39;98890.00;;;2.40
73937;BMP180;59249;59.736;30.568;2023-01-19T02:37:10;98876.00;;;2.50
73937;BMP180;59249;59.736;30.568;2023-01-19T02:39:44;98870.00;;;2.40
73937;BMP180;59249;59.736;30.568;2023-01-19T02:42:20;98875.00;;;2.40
73937;BMP180;59249;59.736;30.568;2023-01-19T02:44:54;98867.00;;;2.40
73937;BMP180;59249;59.736;30.568;2023-01-19T02:47:23;98862.00;;;2.40
73937;BMP180;59249;59.736;30.568;2023-01-19T02:49:55;98865.00;;;2.40
73937;BMP180;59249;59.736;30.568;2023-01-19T02:52:25;98864.00;;;2.30
73937;BMP180;59249;59.736;30.568;2023-01-19T02:55:03;98850.00;;;2.30
73937;BMP180;59249;59.736;30.568;2023-01-19T02:57:49;98854.00;;;2.20
73937;BMP180;59249;59.736;30.568;2023-01-19T03:00:32;98839.00;;;2.20
73937;BMP180;59249;59.736;30.568;2023-01-19T03:03:18;98841.00;;;2.20
73937;BMP180;59249;59.736;30.568;2023-01-19T03:06:02;98834.00;;;2.20
73937;BMP180;59249;59.736;30.568;2023-01-19T03:08:42;98825.00;;;2.10
73937;BMP180;59249;59.736;30.568;2023-01-19T03:11:16;98824.00;;;2.20
73937;BMP180;59249;59.736;30.568;2023-01-19T03:13:48;98819.00;;;2.20
73937;BMP180;59249;59.736;30.568;2023-01-19T03:16:22;98817.00;;;2.20
73937;BMP180;59249;59.736;30.568;2023-01-19T03:18:58;98804.00;;;2.10
73937;BMP180;59249;59.736;30.568;2023-01-19T03:21:34;98807.00;;;2.10
73937;BMP180;59249;59.736;30.568;2023-01-19T03:24:06;98787.00;;;2.20
73937;BMP180;59249;59.736;30.568;2023-01-19T03:26:40;98782.00;;;2.20
73937;BMP180;59249;59.736;30.568;2023-01-19T03:29:12;98774.00;;;2.20
73937;BMP180;59249;59.736;30.568;2023-01-19T03:31:46;98770.00;;;2.10
73937;BMP180;59249;59.736;30.568;2023-01-19T03:34:18;98778.00;;;2.10
73937;BMP180;59249;59.736;30.568;2023-01-19T03:36:52;98761.00;;;2.20
73937;BMP180;59249;59.736;30.568;2023-01-19T03:39:25;98767.00;;;2.10
73937;BMP180;59249;59.736;30.568;2023-01-19T03:41:58;98752.00;;;2.20
73937;BMP180;59249;59.736;30.568;2023-01-19T03:44:32;98739.00;;;2.20
73937;BMP180;59249;59.736;30.568;2023-01-19T03:47:05;98747.00;;;2.20
73937;BMP180;59249;59.736;30.568;2023-01-19T03:49:36;98744.00;;;2.20
73937;BMP180;59249;59.736;30.568;2023-01-19T03:52:07;98737.00;;;2.20
73937;BMP180;59249;59.736;30.568;2023-01-19T03:54:36;98738.00;;;2.20
73937;BMP180;59249;59.736;30.568;2023-01-19T03:57:06;98730.00;;;2.30
73937;BMP180;59249;59.736;30.568;2023-01-19T03:59:35;98731.00;;;2.30
73937;BMP180;59249;59.736;30.568;2023-01-19T04:02:04;98747.00;;;2.40
73937;BMP180;59249;59.736;30.568;2023-01-19T04:04:33;98719.00;;;2.40
73937;BMP180;59249;59.736;30.568;2023-01-19T04:07:01;98722.00;;;2.30
73937;BMP180;59249;59.736;30.568;2023-01-19T04:09:30;98739.00;;;2.40
73937;BMP180;59249;59.736;30.568;2023-01-19T04:11:59;98721.00;;;2.30
73937;BMP180;59249;59.736;30.568;2023-01-19T04:14:31;98711.00;;;2.40
73937;BMP180;59249;59.736;30.568;2023-01-19T04:17:00;98710.00;;;2.40
73937;BMP180;59249;59.736;30.568;2023-01-19T04:19:29;98706.00;;;2.40
73937;BMP180;59249;59.736;30.568;2023-01-19T04:21:57;98697.00;;;2.50
73937;BMP180;59249;59.736;30.568;2023-01-19T04:24:27;98701.00;;;2.50
73937;BMP180;59249;59.736;30.568;2023-01-19T04:26:56;98698.00;;;2.50
73937;BMP180;59249;59.736;30.568;2023-01-19T04:29:25;98701.00;;;2.60
73937;BMP180;59249;59.736;30.568;2023-01-19T04:31:56;98686.00;;;2.60
73937;BMP180;59249;59.736;30.568;2023-01-19T04:34:25;98681.00;;;2.60
73937;BMP180;59249;59.736;30.568;2023-01-19T04:36:54;98681.00;;;2.60
73937;BMP180;59249;59.736;30.568;2023-01-19T04:39:23;98683.00;;;2.70
73937;BMP180;59249;59.736;30.568;2023-01-19T04:41:51;98680.00;;;2.70
73937;BMP180;59249;59.736;30.568;2023-01-19T04:44:22;98682.00;;;2.70
73937;BMP180;59249;59.736;30.568;2023-01-19T04:46:50;98681.00;;;2.70
73937;BMP180;59249;59.736;30.568;2023-01-19T04:49:21;98666.00;;;2.80
73937;BMP180;59249;59.736;30.568;2023-01-19T04:51:51;98663.00;;;2.80
73937;BMP180;59249;59.736;30.568;2023-01-19T04:54:20;98661.00;;;2.80
73937;BMP180;59249;59.736;30.568;2023-01-19T04:56:50;98662.00;;;2.80
73937;BMP180;59249;59.736;30.568;2023-01-19T04:59:19;98662.00;;;2.80
73937;BMP180;59249;59.736;30.568;2023-01-19T05:01:47;98646.00;;;2.80
73937;BMP180;59249;59.736;30.568;2023-01-19T05:04:16;98655.00;;;2.90
73937;BMP180;59249;59.736;30.568;2023-01-19T05:06:46;98652.00;;;2.80
73937;BMP180;59249;59.736;30.568;2023-01-19T05:09:15;98646.00;;;2.90
73937;BMP180;59249;59.736;30.568;2023-01-19T05:11:44;98662.00;;;3.00
73937;BMP180;59249;59.736;30.568;2023-01-19T05:14:13;98646.00;;;3.00
73937;BMP180;59249;59.736;30.568;2023-01-19T05:16:41;98655.00;;;3.00
73937;BMP180;59249;59.736;30.568;2023-01-19T05:19:10;98649.00;;;3.00
73937;BMP180;59249;59.736;30.568;2023-01-19T05:21:39;98656.00;;;3.10
73937;BMP180;59249;59.736;30.568;2023-01-19T05:24:09;98657.00;;;3.10
73937;BMP180;59249;59.736;30.568;2023-01-19T05:26:38;98640.00;;;3.20
73937;BMP180;59249;59.736;30.568;2023-01-19T05:29:07;98639.00;;;3.30
73937;BMP180;59249;59.736;30.568;2023-01-19T05:31:36;98640.00;;;3.30
73937;BMP180;59249;59.736;30.568;2023-01-19T05:34:05;98635.00;;;3.30
73937;BMP180;59249;59.736;30.568;2023-01-19T05:36:33;98632.00;;;3.30
73937;BMP180;59249;59.736;30.568;2023-01-19T05:39:02;98636.00;;;3.40
73937;BMP180;59249;59.736;30.568;2023-01-19T05:41:32;98628.00;;;3.50
73937;BMP180;59249;59.736;30.568;2023-01-19T05:44:01;98635.00;;;3.50
73937;BMP180;59249;59.736;30.568;2023-01-19T05:46:31;98638.00;;;3.50
73937;BMP180;59249;59.736;30.568;2023-01-19T05:49:00;98634.00;;;3.60
73937;BMP180;59249;59.736;30.568;2023-01-19T05:51:31;98644.00;;;3.70
73937;BMP180;59249;59.736;30.568;2023-01-19T05:54:04;98633.00;;;3.80
73937;BMP180;59249;59.736;30.568;2023-01-19T05:56:35;98633.00;;;3.80
73937;BMP180;59249;59.736;30.568;2023-01-19T05:59:05;98640.00;;;3.90
73937;BMP180;59249;59.736;30.568;2023-01-19T06:01:34;98649.00;;;3.90
73937;BMP180;59249;59.736;30.568;2023-01-19T06:04:05;98641.00;;;4.00
73937;BMP180;59249;59.736;30.568;2023-01-19T06:06:34;98638.00;;;4.00
73937;BMP180;59249;59.736;30.568;2023-01-19T06:09:03;98641.00;;;4.10
73937;BMP180;59249;59.736;30.568;2023-01-19T06:11:35;98636.00;;;4.10
73937;BMP180;59249;59.736;30.568;2023-01-19T06:14:04;98645.00;;;4.20
73937;BMP180;59249;59.736;30.568;2023-01-19T06:16:32;98638.00;;;4.30
73937;BMP180;59249;59.736;30.568;2023-01-19T06:19:01;98646.00;;;4.40
73937;BMP180;59249;59.736;30.568;2023-01-19T06:21:30;98640.00;;;4.40
73937;BMP180;59249;59.736;30.568;2023-01-19T06:24:00;98635.00;;;4.40
73937;BMP180;59249;59.736;30.568;2023-01-19T06:26:29;98648.00;;;4.40
73937;BMP180;59249;59.736;30.568;2023-01-19T06:28:59;98649.00;;;4.50
73937;BMP180;59249;59.736;30.568;2023-01-19T06:31:28;98648.00;;;4.60
73937;BMP180;59249;59.736;30.568;2023-01-19T06:33:56;98649.00;;;4.60
73937;BMP180;59249;59.736;30.568;2023-01-19T06:36:25;98651.00;;;4.50
73937;BMP180;59249;59.736;30.568;2023-01-19T06:38:54;98648.00;;;4.70
73937;BMP180;59249;59.736;30.568;2023-01-19T06:41:22;98653.00;;;4.70
73937;BMP180;59249;59.736;30.568;2023-01-19T06:43:51;98655.00;;;4.70
73937;BMP180;59249;59.736;30.568;2023-01-19T06:46:21;98662.00;;;4.70
73937;BMP180;59249;59.736;30.568;2023-01-19T06:48:49;98664.00;;;4.70
73937;BMP180;59249;59.736;30.568;2023-01-19T06:51:18;98669.00;;;4.80
73937;BMP180;59249;59.736;30.568;2023-01-19T06:53:47;98669.00;;;4.70
73937;BMP180;59249;59.736;30.568;2023-01-19T06:56:16;98665.00;;;4.70
73937;BMP180;59249;59.736;30.568;2023-01-19T06:58:46;98672.00;;;4.80
73937;BMP180;59249;59.736;30.568;2023-01-19T07:01:16;98666.00;;;4.80
73937;BMP180;59249;59.736;30.568;2023-01-19T07:03:46;98668.00;;;4.80
73937;BMP180;59249;59.736;30.568;2023-01-19T07:06:15;98673.00;;;4.70
73937;BMP180;59249;59.736;30.568;2023-01-19T07:08:43;98680.00;;;4.70
73937;BMP180;59249;59.736;30.568;2023-01-19T07:11:12;98677.00;;;4.70
73937;BMP180;59249;59.736;30.568;2023-01-19T07:13:55;98688.00;;;4.70
73937;BMP180;59249;59.736;30.568;2023-01-19T07:16:23;98683.00;;;4.70
73937;BMP180;59249;59.736;30.568;2023-01-19T07:18:54;98684.00;;;4.60
73937;BMP180;59249;59.736;30.568;2023-01-19T07:21:23;98678.00;;;4.70
73937;BMP180;59249;59.736;30.568;2023-01-19T07:23:55;98681.00;;;4.80
73937;BMP180;59249;59.736;30.568;2023-01-19T07:26:23;98690.00;;;4.70
73937;BMP180;59249;59.736;30.568;2023-01-19T07:28:53;98696.00;;;4.70
73937;BMP180;59249;59.736;30.568;2023-01-19T07:31:22;98693.00;;;4.70
73937;BMP180;59249;59.736;30.568;2023-01-19T07:33:51;98694.00;;;4.70
73937;BMP180;59249;59.736;30.568;2023-01-19T07:36:21;98702.00;;;4.70
73937;BMP180;59249;59.736;30.568;2023-01-19T07:38:50;98704.00;;;4.60
73937;BMP180;59249;59.736;30.568;2023-01-19T07:41:18;98709.00;;;4.70
73937;BMP180;59249;59.736;30.568;2023-01-19T07:43:47;98714.00;;;4.70
73937;BMP180;59249;59.736;30.568;2023-01-19T07:46:17;98712.00;;;4.60
73937;BMP180;59249;59.736;30.568;2023-01-19T07:48:46;98723.00;;;4.70
73937;BMP180;59249;59.736;30.568;2023-01-19T07:51:15;98720.00;;;4.60
73937;BMP180;59249;59.736;30.568;2023-01-19T07:53:48;98732.00;;;4.70
73937;BMP180;59249;59.736;30.568;2023-01-19T07:56:18;98731.00;;;4.70
73937;BMP180;59249;59.736;30.568;2023-01-19T07:58:48;98730.00;;;4.60
73937;BMP180;59249;59.736;30.568;2023-01-19T08:01:18;98723.00;;;4.60
73937;BMP180;59249;59.736;30.568;2023-01-19T08:03:47;98730.00;;;4.50
73937;BMP180;59249;59.736;30.568;2023-01-19T08:06:20;98737.00;;;4.50
73937;BMP180;59249;59.736;30.568;2023-01-19T08:08:51;98751.00;;;4.30
73937;BMP180;59249;59.736;30.568;2023-01-19T08:11:19;98761.00;;;4.40
73937;BMP180;59249;59.736;30.568;2023-01-19T08:13:48;98756.00;;;4.30
73937;BMP180;59249;59.736;30.568;2023-01-19T08:16:17;98754.00;;;4.10
73937;BMP180;59249;59.736;30.568;2023-01-19T08:18:46;98766.00;;;4.20
73937;BMP180;59249;59.736;30.568;2023-01-19T08:21:14;98760.00;;;4.20
73937;BMP180;59249;59.736;30.568;2023-01-19T08:23:43;98768.00;;;4.20
73937;BMP180;59249;59.736;30.568;2023-01-19T08:26:21;98769.00;;;4.20
73937;BMP180;59249;59.736;30.568;2023-01-19T08:28:56;98768.00;;;4.10
73937;BMP180;59249;59.736;30.568;2023-01-19T08:31:26;98771.00;;;4.10
73937;BMP180;59249;59.736;30.568;2023-01-19T08:33:55;98764.00;;;4.10
73937;BMP180;59249;59.736;30.568;2023-01-19T08:36:24;98774.00;;;4.00
73937;BMP180;59249;59.736;30.568;2023-01-19T08:38:53;98786.00;;;4.10
73937;BMP180;59249;59.736;30.568;2023-01-19T08:41:23;98796.00;;;4.10
73937;BMP180;59249;59.736;30.568;2023-01-19T08:43:52;98795.00;;;4.20
73937;BMP180;59249;59.736;30.568;2023-01-19T08:46:21;98801.00;;;4.10
73937;BMP180;59249;59.736;30.568;2023-01-19T08:48:49;98811.00;;;4.20
73937;BMP180;59249;59.736;30.568;2023-01-19T08:51:18;98809.00;;;4.10
73937;BMP180;59249;59.736;30.568;2023-01-19T08:53:47;98815.00;;;4.00
73937;BMP180;59249;59.736;30.568;2023-01-19T08:56:16;98823.00;;;4.00
73937;BMP180;59249;59.736;30.568;2023-01-19T08:58:48;98817.00;;;4.00
73937;BMP180;59249;59.736;30.568;2023-01-19T09:01:36;98828.00;;;4.00
73937;BMP180;59249;59.736;30.568;2023-01-19T09:04:05;98820.00;;;4.20
73937;BMP180;59249;59.736;30.568;2023-01-19T09:06:34;98832.00;;;4.00
73937;BMP180;59249;59.736;30.568;2023-01-19T09:09:03;98842.00;;;4.00
73937;BMP180;59249;59.736;30.568;2023-01-19T09:11:32;98833.00;;;3.90
73937;BMP180;59249;59.736;30.568;2023-01-19T09:14:02;98838.00;;;4.00
73937;BMP180;59249;59.736;30.568;2023-01-19T09:16:31;98838.00;;;4.00
73937;BMP180;59249;59.736;30.568;2023-01-19T09:19:00;98846.00;;;3.90
73937;BMP180;59249;59.736;30.568;2023-01-19T09:21:29;98855.00;;;3.90
73937;BMP180;59249;59.736;30.568;2023-01-19T09:23:58;98848.00;;;3.80
73937;BMP180;59249;59.736;30.568;2023-01-19T09:26:27;98867.00;;;3.80
73937;BMP180;59249;59.736;30.568;2023-01-19T09:28:58;98852.00;;;3.80
73937;BMP180;59249;59.736;30.568;2023-01-19T09:31:29;98879.00;;;3.80
73937;BMP180;59249;59.736;30.568;2023-01-19T09:33:57;98884.00;;;3.80
73937;BMP180;59249;59.736;30.568;2023-01-19T09:36:26;98887.00;;;3.70
73937;BMP180;59249;59.736;30.568;2023-01-19T09:38:56;98878.00;;;3.60
73937;BMP180;59249;59.736;30.568;2023-01-19T09:41:25;98900.00;;;3.70
73937;BMP180;59249;59.736;30.568;2023-01-19T09:43:56;98907.00;;;3.60
73937;BMP180;59249;59.736;30.568;2023-01-19T09:46:33;98898.00;;;3.60
73937;BMP180;59249;59.736;30.568;2023-01-19T09:49:12;98904.00;;;3.70
73937;BMP180;59249;59.736;30.568;2023-01-19T09:51:44;98915.00;;;3.60
73937;BMP180;59249;59.736;30.568;2023-01-19T09:54:17;98912.00;;;3.50
73937;BMP180;59249;59.736;30.568;2023-01-19T09:56:48;98920.00;;;3.50
73937;BMP180;59249;59.736;30.568;2023-01-19T09:59:21;98927.00;;;3.50
73937;BMP180;59249;59.736;30.568;2023-01-19T10:02:06;98924.00;;;3.50
73937;BMP180;59249;59.736;30.568;2023-01-19T10:04:58;98941.00;;;3.60
73937;BMP180;59249;59.736;30.568;2023-01-19T10:07:53;98939.00;;;3.60
73937;BMP180;59249;59.736;30.568;2023-01-19T10:10:32;98947.00;;;3.70
73937;BMP180;59249;59.736;30.568;2023-01-19T10:13:20;98962.00;;;3.70
73937;BMP180;59249;59.736;30.568;2023-01-19T10:16:02;98962.00;;;3.70
73937;BMP180;59249;59.736;30.568;2023-01-19T10:18:42;98955.00;;;3.50
73937;BMP180;59249;59.736;30.568;2023-01-19T10:21:16;98970.00;;;3.50
73937;BMP180;59249;59.736;30.568;2023-01-19T10:23:50;98964.00;;;3.50
73937;BMP180;59249;59.736;30.568;2023-01-19T10:26:23;98964.00;;;3.30
73937;BMP180;59249;59.736;30.568;2023-01-19T10:28:58;98988.00;;;3.40
73937;BMP180;59249;59.736;30.568;2023-01-19T10:31:31;98999.00;;;3.30
73937;BMP180;59249;59.736;30.568;2023-01-19T10:34:04;99016.00;;;3.20
73937;BMP180;59249;59.736;30.568;2023-01-19T10:36:35;99015.00;;;3.10
73937;BMP180;59249;59.736;30.568;2023-01-19T10:39:06;99026.00;;;3.10
73937;BMP180;59249;59.736;30.568;2023-01-19T10:41:40;99028.00;;;3.00
73937;BMP180;59249;59.736;30.568;2023-01-19T10:44:10;99021.00;;;3.00
73937;BMP180;59249;59.736;30.568;2023-01-19T10:46:42;99026.00;;;2.90
73937;BMP180;59249;59.736;30.568;2023-01-19T10:49:29;99043.00;;;3.10
73937;BMP180;59249;59.736;30.568;2023-01-19T10:52:04;99053.00;;;3.00
73937;BMP180;59249;59.736;30.568;2023-01-19T10:54:36;99061.00;;;3.00
73937;BMP180;59249;59.736;30.568;2023-01-19T10:57:08;99062.00;;;3.00
73937;BMP180;59249;59.736;30.568;2023-01-19T10:59:47;99079.00;;;3.00
73937;BMP180;59249;59.736;30.568;2023-01-19T11:02:18;99092.00;;;3.00
73937;BMP180;59249;59.736;30.568;2023-01-19T11:04:51;99091.00;;;2.90
73937;BMP180;59249;59.736;30.568;2023-01-19T11:07:22;99088.00;;;3.00
73937;BMP180;59249;59.736;30.568;2023-01-19T11:10:15;99103.00;;;3.00
73937;BMP180;59249;59.736;30.568;2023-01-19T11:12:57;99129.00;;;2.90
73937;BMP180;59249;59.736;30.568;2023-01-19T11:15:31;99129.00;;;2.90
73937;BMP180;59249;59.736;30.568;2023-01-19T11:18:03;99140.00;;;2.80
73937;BMP180;59249;59.736;30.568;2023-01-19T11:20:39;99162.00;;;2.70
73937;BMP180;59249;59.736;30.568;2023-01-19T11:23:23;99167.00;;;2.80
73937;BMP180;59249;59.736;30.568;2023-01-19T11:25:57;99151.00;;;2.80
73937;BMP180;59249;59.736;30.568;2023-01-19T11:28:31;99179.00;;;2.90
73937;BMP180;59249;59.736;30.568;2023-01-19T11:31:16;99187.00;;;2.80
73937;BMP180;59249;59.736;30.568;2023-01-19T11:33:52;99209.00;;;2.80
73937;BMP180;59249;59.736;30.568;2023-01-19T11:36:25;99234.00;;;2.80
73937;BMP180;59249;59.736;30.568;2023-01-19T11:38:57;99212.00;;;2.70
73937;BMP180;59249;59.736;30.568;2023-01-19T11:41:28;99221.00;;;2.70
73937;BMP180;59249;59.736;30.568;2023-01-19T11:44:07;99219.00;;;2.70
73937;BMP180;59249;59.736;30.568;2023-01-19T11:46:43;99182.00;;;2.70
73937;BMP180;59249;59.736;30.568;2023-01-19T11:49:20;99276.00;;;2.60
73937;BMP180;59249;59.736;30.568;2023-01-19T11:52:01;99288.00;;;2.60
73937;BMP180;59249;59.736;30.568;2023-01-19T11:54:35;99285.00;;;2.60
73937;BMP180;59249;59.736;30.568;2023-01-19T11:57:15;99289.00;;;2.60
73937;BMP180;59249;59.736;30.568;2023-01-19T11:59:46;99287.00;;;2.60
73937;BMP180;59249;59.736;30.568;2023-01-19T12:02:23;99311.00;;;2.60
73937;BMP180;59249;59.736;30.568;2023-01-19T12:04:58;99326.00;;;2.50
73937;BMP180;59249;59.736;30.568;2023-01-19T12:07:34;99337.00;;;2.50
73937;BMP180;59249;59.736;30.568;2023-01-19T12:10:16;99331.00;;;2.50
73937;BMP180;59249;59.736;30.568;2023-01-19T12:12:51;99363.00;;;2.60
73937;BMP180;59249;59.736;30.568;2023-01-19T12:15:25;99359.00;;;2.60
73937;BMP180;59249;59.736;30.568;2023-01-19T12:18:00;99387.00;;;2.50
73937;BMP180;59249;59.736;30.568;2023-01-19T12:20:35;99387.00;;;2.50
73937;BMP180;59249;59.736;30.568;2023-01-19T12:23:16;99360.00;;;2.50
73937;BMP180;59249;59.736;30.568;2023-01-19T12:26:04;99401.00;;;2.50
73937;BMP180;59249;59.736;30.568;2023-01-19T12:28:50;99417.00;;;2.50
73937;BMP180;59249;59.736;30.568;2023-01-19T12:31:21;99425.00;;;2.50
73937;BMP180;59249;59.736;30.568;2023-01-19T12:33:50;99444.00;;;2.50
73937;BMP180;59249;59.736;30.568;2023-01-19T12:36:36;99455.00;;;2.50
73937;BMP180;59249;59.736;30.568;2023-01-19T12:39:15;99454.00;;;2.50
73937;BMP180;59249;59.736;30.568;2023-01-19T12:41:46;99456.00;;;2.50
73937;BMP180;59249;59.736;30.568;2023-01-19T12:44:26;99471.00;;;2.50
73937;BMP180;59249;59.736;30.568;2023-01-19T12:47:17;99483.00;;;2.50
73937;BMP180;59249;59.736;30.568;2023-01-19T12:49:52;99477.00;;;2.40
73937;BMP180;59249;59.736;30.568;2023-01-19T12:52:29;99516.00;;;2.40
73937;BMP180;59249;59.736;30.568;2023-01-19T12:55:13;99509.00;;;2.40
73937;BMP180;59249;59.736;30.568;2023-01-19T12:57:52;99547.00;;;2.50
73937;BMP180;59249;59.736;30.568;2023-01-19T13:00:33;99554.00;;;2.50
73937;BMP180;59249;59.736;30.568;2023-01-19T13:03:44;99561.00;;;2.40
73937;BMP180;59249;59.736;30.568;2023-01-19T13:07:06;99587.00;;;2.40
73937;BMP180;59249;59.736;30.568;2023-01-19T13:09:39;99599.00;;;2.40
73937;BMP180;59249;59.736;30.568;2023-01-19T13:12:23;99601.00;;;2.40
73937;BMP180;59249;59.736;30.568;2023-01-19T13:15:26;99603.00;;;2.50
73937;BMP180;59249;59.736;30.568;2023-01-19T13:18:01;99634.00;;;2.50
73937;BMP180;59249;59.736;30.568;2023-01-19T13:20:43;99641.00;;;2.50
73937;BMP180;59249;59.736;30.568;2023-01-19T13:23:21;99647.00;;;2.50
73937;BMP180;59249;59.736;30.568;2023-01-19T13:26:00;99648.00;;;2.60
73937;BMP180;59249;59.736;30.568;2023-01-19T13:28:36;99629.00;;;2.50
73937;BMP180;59249;59.736;30.568;2023-01-19T13:31:08;99669.00;;;2.50
73937;BMP180;59249;59.736;30.568;2023-01-19T13:33:46;99665.00;;;2.50
73937;BMP180;59249;59.736;30.568;2023-01-19T13:36:20;99693.00;;;2.40
73937;BMP180;59249;59.736;30.568;2023-01-19T13:38:53;99695.00;;;2.40
73937;BMP180;59249;59.736;30.568;2023-01-19T13:41:26;99703.00;;;2.30
73937;BMP180;59249;59.736;30.568;2023-01-19T13:44:01;99718.00;;;2.40
73937;BMP180;59249;59.736;30.568;2023-01-19T13:46:32;99728.00;;;2.40
73937;BMP180;59249;59.736;30.568;2023-01-19T13:49:04;99724.00;;;2.40
73937;BMP180;59249;59.736;30.568;2023-01-19T13:51:42;99746.00;;;2.40
73937;BMP180;59249;59.736;30.568;2023-01-19T13:54:14;99739.00;;;2.30
73937;BMP180;59249;59.736;30.568;2023-01-19T13:56:48;99771.00;;;2.30
73937;BMP180;59249;59.736;30.568;2023-01-19T13:59:22;99785.00;;;2.30
73937;BMP180;59249;59.736;30.568;2023-01-19T14:01:51;99787.00;;;2.40
73937;BMP180;59249;59.736;30.568;2023-01-19T14:04:25;99789.00;;;2.40
73937;BMP180;59249;59.736;30.568;2023-01-19T14:07:02;99770.00;;;2.30
73937;BMP180;59249;59.736;30.568;2023-01-19T14:09:33;99803.00;;;2.40
73937;BMP180;59249;59.736;30.568;2023-01-19T14:12:13;99788.00;;;2.40
73937;BMP180;59249;59.736;30.568;2023-01-19T14:14:45;99828.00;;;2.40
73937;BMP180;59249;59.736;30.568;2023-01-19T14:17:21;99835.00;;;2.30
73937;BMP180;59249;59.736;30.568;2023-01-19T14:19:53;99847.00;;;2.40
73937;BMP180;59249;59.736;30.568;2023-01-19T14:22:41;99858.00;;;2.30
73937;BMP180;59249;59.736;30.568;2023-01-19T14:25:28;99860.00;;;2.30
73937;BMP180;59249;59.736;30.568;2023-01-19T14:28:31;99875.00;;;2.20
73937;BMP180;59249;59.736;30.568;2023-01-19T14:31:22;99879.00;;;2.20
73937;BMP180;59249;59.736;30.568;2023-01-19T14:33:54;99883.00;;;2.20
73937;BMP180;59249;59.736;30.568;2023-01-19T14:36:28;99887.00;;;2.20
73937;BMP180;59249;59.736;30.568;2023-01-19T14:39:02;99912.00;;;2.30
73937;BMP180;59249;59.736;30.568;2023-01-19T14:41:35;99924.00;;;2.30
73937;BMP180;59249;59.736;30.568;2023-01-19T14:44:08;99947.00;;;2.40
73937;BMP180;59249;59.736;30.568;2023-01-19T14:46:44;99960.00;;;2.40
73937;BMP180;59249;59.736;30.568;2023-01-19T14:49:19;99886.00;;;2.50